Latest Weather Observations for Fowlers Gap

IDN60801

Issued at 11:05 pm EST Tuesday 16 September 2014 (issued every 30 minutes, with the page automatically refreshed every 10 minutes)

About weather observations | Map of weather stations | Latest weather observations for NSW | Other Formats
Station Details ID: 046128 Name: FOWLERS GAP AWS Lat: -31.09 Lon: 141.70 Height: 181.0 m
Data from the previous 72 hours. | See also: Recent months at Fowlers Gap
Date/Time
EST
Temp
°C
App
Temp
°C
Dew
Point
Rel
Hum
%
Delta-T
°C
Wind Press
QNH
hPa
Press
MSL
hPa
Rain
since 9 am
mm
Dir
 
Spd
km/h
Gust
km/h
Spd
kts
Gust
kts
16/11:00pm 12.2 8.9 2.6 52 4.2 SW 9 15 5 8 1017.8 1017.5 0.0
16/10:30pm 12.7 9.9 3.1 52 4.3 W 7 9 4 5 1017.4 1017.1 0.0
16/10:00pm 12.8 9.9 2.6 50 4.5 NW 7 9 4 5 1017.4 1017.1 0.0
16/09:30pm 13.3 10.6 2.8 49 4.7 WNW 6 7 3 4 1017.2 1016.9 0.0
16/09:00pm 14.1 12.2 3.0 47 5.0 NW 2 7 1 4 1017.0 1016.7 0.0
16/08:30pm 15.0 12.4 3.2 45 5.4 NW 6 7 3 4 1016.9 1016.6 0.0
16/08:00pm 15.6 13.0 3.1 43 5.7 WNW 6 7 3 4 1016.6 1016.3 0.0
16/07:30pm 16.4 13.5 2.8 40 6.2 SW 7 9 4 5 1016.5 1016.2 0.0
16/07:00pm 17.6 14.4 3.1 38 6.7 SW 9 11 5 6 1016.1 1015.8 0.0
16/06:30pm 18.6 14.2 2.9 35 7.3 SW 15 19 8 10 1015.9 1015.6 0.0
16/06:00pm 19.6 14.5 2.9 33 7.9 SW 19 24 10 13 1015.6 1015.3 0.0
16/05:30pm 20.5 15.7 2.8 31 8.4 SW 17 26 9 14 1015.4 1015.0 0.0
16/05:00pm 21.0 15.7 3.2 31 8.5 WSW 20 30 11 16 1015.2 1014.8 0.0
16/04:30pm 21.1 15.8 2.9 30 8.7 WSW 20 26 11 14 1015.1 1014.7 0.0
16/04:00pm 21.2 15.0 2.0 28 9.0 SW 24 30 13 16 1014.9 1014.6 0.0
16/03:30pm 21.5 17.9 3.2 30 8.8 SSW 11 20 6 11 1014.8 1014.5 0.0
16/03:00pm 20.9 16.0 2.2 29 8.8 SW 17 28 9 15 1015.2 1014.8 0.0
16/02:30pm 20.9 15.6 3.2 31 8.5 SW 20 32 11 17 1015.6 1015.3 0.0
16/02:00pm 21.0 16.9 4.1 33 8.2 SW 15 28 8 15 1015.9 1015.6 0.0
16/01:30pm 20.0 15.2 4.9 37 7.4 WSW 19 30 10 16 1016.4 1016.1 0.0
16/01:00pm 19.5 14.5 4.8 38 7.2 S 20 30 11 16 1016.9 1016.6 0.0
16/12:30pm 18.8 13.5 4.9 40 6.8 SW 22 30 12 16 1017.4 1017.1 0.0
16/12:00pm 18.3 13.5 5.5 43 6.3 SW 20 30 11 16 1017.7 1017.4 0.0
16/11:30am 17.5 11.5 5.1 44 6.0 SW 26 35 14 19 1018.1 1017.8 0.0
16/11:00am 17.9 12.4 5.8 45 5.9 SSW 24 32 13 17 1018.4 1018.1 0.0
16/10:30am 16.3 11.6 6.2 51 5.0 SW 20 28 11 15 1018.5 1018.2 0.0
16/10:00am 15.7 9.6 6.4 54 4.6 SSW 28 37 15 20 1018.6 1018.3 0.0
16/09:30am 15.4 9.0 6.9 57 4.2 S 30 39 16 21 1018.7 1018.4 0.0
16/09:00am 14.2 8.6 7.3 63 3.4 SSW 26 35 14 19 1018.7 1018.4 0.0
16/08:30am 12.5 8.2 7.2 70 2.6 SW 19 26 10 14 1018.3 1018.0 0.0
16/08:00am 11.5 7.0 7.0 74 2.2 SW 20 26 11 14 1018.0 1017.7 0.0
16/07:30am 10.7 7.6 7.2 79 1.7 SW 13 17 7 9 1017.5 1017.2 0.0
16/07:00am 9.6 6.0 6.7 82 1.4 WSW 15 17 8 9 1017.0 1016.7 0.0
16/06:30am 9.2 6.3 6.3 82 1.4 WSW 11 13 6 7 1016.6 1016.3 0.0
16/06:00am 10.0 7.1 6.7 80 1.6 WSW 11 17 6 9 1016.2 1015.9 0.0
16/05:30am 10.2 5.8 6.7 79 1.7 SW 19 24 10 13 1015.9 1015.6 0.0
16/05:00am 10.4 6.4 6.7 78 1.8 SW 17 22 9 12 1015.6 1015.3 0.0
16/04:30am 11.1 6.8 6.8 75 2.1 SW 19 26 10 14 1015.4 1015.0 0.0
16/04:00am 11.5 7.0 6.8 73 2.3 SW 20 24 11 13 1015.4 1015.0 0.0
16/03:30am 12.1 6.8 7.0 71 2.5 SW 24 35 13 19 1015.2 1014.8 0.0
16/03:00am 12.3 7.5 7.2 71 2.5 WSW 22 30 12 16 1015.1 1014.7 0.0
16/02:30am 12.5 7.6 7.0 69 2.7 WSW 22 28 12 15 1015.1 1014.7 0.0
16/02:00am 12.6 8.3 6.9 68 2.8 W 19 22 10 12 1015.4 1015.0 0.0
16/01:30am 12.7 9.5 7.0 68 2.8 WSW 13 17 7 9 1015.6 1015.3 0.0
16/01:00am 13.3 9.4 7.1 66 3.0 W 17 20 9 11 1015.6 1015.3 0.0
16/12:30am 13.3 10.1 6.9 65 3.1 W 13 15 7 8 1015.5 1015.1 0.0
16/12:00am 13.6 10.7 6.7 63 3.4 W 11 13 6 7 1015.4 1015.0 0.0
 
Date/Time
EST
Temp
°C
App
Temp
°C
Dew
Point
Rel
Hum
%
Delta-T
°C
Wind Press
QNH
hPa
Press
MSL
hPa
Rain
since 9 am
mm
Dir
 
Spd
km/h
Gust
km/h
Spd
kts
Gust
kts
15/11:30pm 14.4 10.8 6.7 60 3.8 WSW 15 19 8 10 1015.4 1015.0 0.0
15/11:00pm 15.6 10.7 6.9 56 4.3 WSW 22 26 12 14 1015.4 1015.0 0.0
15/10:30pm 16.1 11.6 6.8 54 4.6 WSW 20 32 11 17 1015.3 1014.9 0.0
15/10:00pm 16.6 12.2 6.7 52 4.9 WSW 19 24 10 13 1015.4 1015.0 0.0
15/09:30pm 16.9 11.9 6.4 50 5.2 WSW 22 28 12 15 1015.3 1014.9 0.0
15/09:00pm 16.9 12.7 5.8 48 5.4 WSW 17 20 9 11 1015.1 1014.7 0.0
15/08:30pm 17.5 11.9 5.4 45 5.9 WSW 24 32 13 17 1014.8 1014.5 0.0
15/08:00pm 18.2 11.5 5.4 43 6.3 SW 30 39 16 21 1014.4 1014.1 0.0
15/07:30pm 18.7 11.4 5.5 42 6.5 WSW 33 46 18 25 1013.7 1013.4 0.0
15/07:00pm 19.1 11.3 4.8 39 7.0 WSW 35 46 19 25 1013.3 1013.0 0.0
15/06:30pm 19.7 10.5 5.4 39 7.1 WSW 43 57 23 31 1012.6 1012.3 0.0
15/06:00pm 20.8 12.3 5.2 36 7.8 WSW 39 52 21 28 1012.2 1011.9 0.0
15/05:30pm 21.8 13.8 5.7 35 8.1 WSW 37 56 20 30 1011.9 1011.6 0.0
15/05:03pm 22.1 14.1 5.5 34 8.4 WSW 37 57 20 31 1011.7 1011.4 0.0
15/05:00pm 22.3 13.9 5.7 34 8.4 WSW 39 54 21 29 1011.7 1011.4 0.0
15/04:30pm 22.8 14.3 5.3 32 8.8 WSW 39 48 21 26 1011.5 1011.2 0.0
15/04:00pm 23.2 13.8 5.6 32 9.0 WSW 44 57 24 31 1011.4 1011.1 0.0
15/03:30pm 23.6 15.2 5.5 31 9.2 W 39 57 21 31 1011.1 1010.8 0.0
15/03:02pm 23.7 14.4 5.1 30 9.4 W 43 61 23 33 1011.2 1010.9 0.0
15/03:00pm 23.5 13.9 4.5 29 9.5 W 44 61 24 33 1011.1 1010.8 0.0
15/02:38pm 23.9 15.7 4.8 29 9.6 W 37 57 20 31 1011.3 1011.0 0.0
15/02:30pm 24.1 15.9 4.5 28 9.8 W 37 52 20 28 1011.5 1011.2 0.0
15/02:15pm 23.7 16.3 5.1 30 9.4 WSW 33 52 18 28 1011.5 1011.2 0.0
15/02:00pm 23.6 15.0 4.5 29 9.6 WSW 39 52 21 28 1011.5 1011.2 0.0
15/01:34pm 24.3 15.6 4.1 27 10.1 W 39 57 21 31 1011.5 1011.2 0.0
15/01:30pm 23.8 14.7 4.2 28 9.8 W 41 56 22 30 1011.7 1011.4 0.0
15/01:00pm 24.0 15.5 3.3 26 10.1 WSW 37 52 20 28 1011.7 1011.4 0.0
15/12:30pm 25.2 16.4 1.3 21 11.4 W 37 54 20 29 1011.7 1011.4 0.0
15/12:00pm 24.8 15.3 -0.4 19 11.6 W 39 48 21 26 1012.0 1011.7 0.0
15/11:44am 25.9 16.5 -2.7 15 12.7 W 37 48 20 26 1011.9 1011.6 0.0
15/11:30am 26.7 17.9 -4.0 13 13.4 NW 33 54 18 29 1012.0 1011.7 0.0
15/11:25am 26.8 18.2 -2.9 14 13.3 NW 33 54 18 29 1012.1 1011.8 0.0
15/11:00am 25.8 17.1 -3.7 14 12.9 NNW 33 50 18 27 1012.2 1011.9 0.0
15/10:30am 24.7 15.2 -3.6 15 12.3 NNW 37 54 20 29 1012.5 1012.2 0.0
15/10:05am 23.8 15.4 -2.7 17 11.6 NNW 32 50 17 27 1013.0 1012.7 0.0
15/10:00am 23.8 15.2 -2.7 17 11.6 NNW 33 46 18 25 1013.1 1012.8 0.0
15/09:36am 22.9 14.3 -2.6 18 11.1 NNW 33 54 18 29 1013.3 1013.0 0.0
15/09:30am 23.1 14.6 -1.8 19 11.0 NNW 33 44 18 24 1013.4 1013.1 0.0
15/09:00am 23.0 14.4 -2.6 18 11.1 NNW 33 46 18 25 1013.6 1013.3 0.0
15/08:30am 21.0 13.5 -1.5 22 9.8 N 28 39 15 21 1013.6 1013.3 0.0
15/08:00am 20.1 12.4 -2.9 21 9.7 N 28 37 15 20 1013.4 1013.1 0.0
15/07:30am 20.0 11.5 -3.6 20 9.8 N 32 43 17 23 1013.3 1013.0 0.0
15/07:00am 18.8 11.1 -3.3 22 9.1 N 28 39 15 21 1013.3 1013.0 0.0
15/06:30am 17.8 11.5 -3.6 23 8.7 N 20 30 11 16 1013.3 1013.0 0.0
15/06:00am 19.2 12.3 -3.0 22 9.3 N 24 32 13 17 1013.0 1012.7 0.0
15/05:30am 18.9 11.5 -3.9 21 9.3 N 26 30 14 16 1012.9 1012.6 0.0
15/05:00am 19.1 11.6 -4.4 20 9.5 N 26 32 14 17 1013.1 1012.8 0.0
15/04:30am 19.2 11.3 -4.3 20 9.5 N 28 41 15 22 1013.1 1012.8 0.0
15/04:00am 19.6 11.7 -4.6 19 9.8 NNE 28 35 15 19 1013.2 1012.9 0.0
15/03:30am 19.5 12.1 -4.0 20 9.6 NNE 26 39 14 21 1013.4 1013.1 0.0
15/03:00am 20.2 13.1 -4.1 19 10.0 NNE 24 32 13 17 1013.8 1013.5 0.0
15/02:30am 20.4 13.7 -4.0 19 10.1 N 22 30 12 16 1014.3 1014.0 0.0
15/02:00am 20.5 14.2 -3.9 19 10.1 N 20 24 11 13 1014.7 1014.4 0.0
15/01:30am 20.5 14.2 -3.9 19 10.1 N 20 26 11 14 1015.3 1014.9 0.0
15/01:00am 21.0 14.8 -3.5 19 10.3 N 20 24 11 13 1015.5 1015.1 0.0
15/12:30am 21.2 15.0 -3.3 19 10.3 N 20 26 11 14 1015.8 1015.5 0.0
15/12:00am 20.8 14.9 -2.3 21 9.9 NNE 19 24 10 13 1016.0 1015.7 0.0
 
Date/Time
EST
Temp
°C
App
Temp
°C
Dew
Point
Rel
Hum
%
Delta-T
°C
Wind Press
QNH
hPa
Press
MSL
hPa
Rain
since 9 am
mm
Dir
 
Spd
km/h
Gust
km/h
Spd
kts
Gust
kts
14/11:30pm 20.2 14.6 -2.8 21 9.7 NNE 17 20 9 11 1016.2 1015.9 0.0
14/11:00pm 20.3 14.7 -2.7 21 9.7 NNE 17 20 9 11 1016.4 1016.1 0.0
14/10:30pm 20.7 15.2 -2.4 21 9.9 NNE 17 20 9 11 1016.7 1016.4 0.0
14/10:00pm 20.5 15.4 -1.9 22 9.6 NNE 15 19 8 10 1016.8 1016.5 0.0
14/09:30pm 21.0 15.4 -2.8 20 10.1 NNE 17 20 9 11 1017.0 1016.7 0.0
14/09:00pm 21.5 16.0 -2.4 20 10.3 NNE 17 20 9 11 1017.0 1016.7 0.0
14/08:30pm 21.0 16.3 -1.5 22 9.8 NNE 13 17 7 9 1017.0 1016.7 0.0
14/08:00pm 19.6 15.4 -0.9 25 8.9 NNE 11 15 6 8 1017.0 1016.7 0.0
14/07:30pm 19.7 17.6 -0.9 25 9.0 CALM 0 0 0 0 1017.0 1016.7 0.0
14/07:00pm 21.0 17.7 -0.9 23 9.7 NE 6 7 3 4 1016.9 1016.6 0.0
14/06:30pm 23.0 18.8 -1.1 20 10.8 NNE 11 13 6 7 1016.8 1016.5 0.0
14/06:00pm 24.7 20.6 -2.8 16 12.1 N 9 11 5 6 1016.7 1016.4 0.0
14/05:30pm 25.5 21.5 -2.1 16 12.4 N 9 15 5 8 1016.5 1016.2 0.0
14/05:00pm 25.7 22.0 -2.8 15 12.6 NNW 7 11 4 6 1016.3 1016.0 0.0
14/04:30pm 26.0 21.6 -2.6 15 12.8 NW 11 17 6 9 1016.5 1016.2 0.0
14/04:00pm 26.8 23.2 -2.0 15 13.0 N 7 17 4 9 1016.7 1016.4 0.0
14/03:30pm 25.9 21.2 -1.8 16 12.5 WNW 13 20 7 11 1016.9 1016.6 0.0
14/03:00pm 25.9 20.1 -1.8 16 12.5 NNW 19 28 10 15 1017.1 1016.8 0.0
14/02:30pm 26.0 20.2 -1.7 16 12.6 NNW 19 28 10 15 1017.1 1016.8 0.0
14/02:00pm 25.5 20.9 -1.3 17 12.2 WNW 13 22 7 12 1017.7 1017.4 0.0
14/01:00pm 25.0 20.8 -0.9 18 11.8 NW 11 20 6 11 1018.7 1018.4 0.0
14/12:30pm 23.8 19.2 -1.2 19 11.2 E 13 20 7 11 1019.4 1019.1 0.0
14/12:00pm 24.2 20.4 -0.9 19 11.4 WNW 9 15 5 8 1020.1 1019.8 0.0
14/11:30am 23.6 19.3 -1.3 19 11.2 NNE 11 17 6 9 1020.4 1020.2 0.0
14/11:00am 22.7 18.6 -0.1 22 10.3 N 11 19 6 10 1020.6 1020.4 0.0
14/10:30am 21.9 17.1 0.4 24 9.8 NNE 15 20 8 11 1021.1 1020.8 0.0
14/10:00am 20.6 15.9 1.0 27 8.9 NE 15 17 8 9 1021.3 1021.0 0.0
14/09:30am 19.5 14.9 1.5 30 8.2 NE 15 19 8 10 1021.3 1021.0 0.0
14/09:00am 18.4 14.5 1.4 32 7.7 NE 11 15 6 8 1021.4 1021.1 0.0
14/08:30am 16.2 12.7 1.5 37 6.5 ENE 9 11 5 6 1021.3 1021.0 0.0
14/08:00am 12.5 10.8 2.1 49 4.5 CALM 0 0 0 0 1021.0 1020.7 0.0
14/07:30am 7.8 5.9 0.5 60 2.9 CALM 0 0 0 0 1021.1 1020.8 0.0
14/07:00am 6.1 4.1 0.0 65 2.4 CALM 0 0 0 0 1021.0 1020.7 0.0
14/06:30am 5.5 3.4 -0.5 65 2.3 CALM 0 0 0 0 1021.2 1020.9 0.0
14/06:00am 5.8 3.7 -0.5 64 2.4 CALM 0 0 0 0 1021.2 1020.9 0.0
14/05:30am 5.9 3.8 -0.6 63 2.5 CALM 0 0 0 0 1021.1 1020.8 0.0
14/05:00am 6.3 4.2 -0.7 61 2.7 CALM 0 0 0 0 1021.0 1020.7 0.0
14/04:30am 6.5 4.5 -0.2 62 2.6 CALM 0 0 0 0 1020.6 1020.4 0.0
14/04:00am 6.7 4.6 -0.5 60 2.8 CALM 0 0 0 0 1020.6 1020.4 0.0
14/03:30am 6.7 4.3 -0.3 61 2.7 WSW 2 6 1 3 1020.7 1020.5 0.0
14/03:00am 7.3 4.1 -0.6 57 3.1 NW 6 7 3 4 1021.1 1020.8 0.0
14/02:30am 8.0 6.0 -0.2 56 3.2 CALM 0 0 0 0 1021.4 1021.1 0.0
14/02:00am 8.4 6.4 -0.4 54 3.5 CALM 0 0 0 0 1021.7 1021.4 0.0
14/01:30am 8.8 6.8 -0.2 53 3.6 CALM 0 0 0 0 1021.7 1021.4 0.0
14/01:00am 9.5 7.5 -0.1 51 3.9 CALM 0 0 0 0 1021.8 1021.5 0.0
14/12:30am 9.2 7.2 -0.4 51 3.8 CALM 0 0 0 0 1021.7 1021.4 0.0
14/12:00am 9.9 8.0 0.3 51 3.9 CALM 0 0 0 0 1021.6 1021.3 0.0
 
Date/Time
EST
Temp
°C
App
Temp
°C
Dew
Point
Rel
Hum
%
Delta-T
°C
Wind Press
QNH
hPa
Press
MSL
hPa
Rain
since 9 am
mm
Dir
 
Spd
km/h
Gust
km/h
Spd
kts
Gust
kts
13/11:30pm 10.0 8.0 0.1 50 4.0 CALM 0 0 0 0 1021.7 1021.4 0.0

Other Formats:

Comma delimited format used in spreadsheet applications
http://www.bom.gov.au/fwo/IDN60801/IDN60801.94686.axf

JavaScript Object Notation format (JSON) in row-major order
http://www.bom.gov.au/fwo/IDN60801/IDN60801.94686.json